sensor_id;sensor_type;location;lat;lon;timestamp;pressure;altitude;pressure_sealevel;temperature;humidity
39223;BME280;24936;46.328;11.026;2023-04-02T00:11:39;93431.03;;;4.98;68.33
39223;BME280;24936;46.328;11.026;2023-04-02T00:14:14;93434.03;;;4.93;68.22
39223;BME280;24936;46.328;11.026;2023-04-02T00:16:41;93435.84;;;4.93;67.26
39223;BME280;24936;46.328;11.026;2023-04-02T00:19:12;93437.19;;;4.97;67.20
39223;BME280;24936;46.328;11.026;2023-04-02T00:21:40;93437.91;;;4.99;67.12
39223;BME280;24936;46.328;11.026;2023-04-02T00:24:19;93440.75;;;4.96;67.24
39223;BME280;24936;46.328;11.026;2023-04-02T00:26:48;93442.69;;;4.94;67.41
39223;BME280;24936;46.328;11.026;2023-04-02T00:29:15;93441.00;;;4.83;67.55
39223;BME280;24936;46.328;11.026;2023-04-02T00:31:43;93440.59;;;4.87;67.43
39223;BME280;24936;46.328;11.026;2023-04-02T00:34:19;93436.09;;;4.89;66.51
39223;BME280;24936;46.328;11.026;2023-04-02T00:36:45;93437.84;;;4.89;67.00
39223;BME280;24936;46.328;11.026;2023-04-02T00:39:16;93438.00;;;4.87;66.59
39223;BME280;24936;46.328;11.026;2023-04-02T00:41:43;93435.00;;;4.92;66.09
39223;BME280;24936;46.328;11.026;2023-04-02T00:44:13;93435.25;;;4.89;67.11
39223;BME280;24936;46.328;11.026;2023-04-02T00:46:41;93434.56;;;4.87;66.16
39223;BME280;24936;46.328;11.026;2023-04-02T00:52:08;93427.56;;;4.87;66.27
39223;BME280;24936;46.328;11.026;2023-04-02T00:54:49;93435.88;;;4.81;65.79
39223;BME280;24936;46.328;11.026;2023-04-02T00:57:20;93447.31;;;4.80;65.43
39223;BME280;24936;46.328;11.026;2023-04-02T01:20:18;93440.25;;;4.50;67.03
39223;BME280;24936;46.328;11.026;2023-04-02T01:23:05;93448.94;;;4.81;65.73
39223;BME280;24936;46.328;11.026;2023-04-02T01:25:42;93438.66;;;4.58;65.94
39223;BME280;24936;46.328;11.026;2023-04-02T01:28:27;93433.91;;;4.42;65.93
39223;BME280;24936;46.328;11.026;2023-04-02T01:31:00;93443.38;;;4.22;67.60
39223;BME280;24936;46.328;11.026;2023-04-02T01:33:33;93439.81;;;4.02;69.91
39223;BME280;24936;46.328;11.026;2023-04-02T01:39:37;93435.91;;;3.75;71.14
39223;BME280;24936;46.328;11.026;2023-04-02T01:42:14;93443.53;;;3.88;70.61
39223;BME280;24936;46.328;11.026;2023-04-02T01:44:50;93445.38;;;3.97;70.45
39223;BME280;24936;46.328;11.026;2023-04-02T01:47:19;93447.94;;;4.09;69.51
39223;BME280;24936;46.328;11.026;2023-04-02T01:49:46;93448.50;;;3.91;69.91
39223;BME280;24936;46.328;11.026;2023-04-02T01:52:17;93448.06;;;3.75;70.98
39223;BME280;24936;46.328;11.026;2023-04-02T01:54:44;93450.84;;;3.62;71.66
39223;BME280;24936;46.328;11.026;2023-04-02T01:57:12;93448.09;;;3.63;71.42
39223;BME280;24936;46.328;11.026;2023-04-02T01:59:38;93448.50;;;3.91;70.06
39223;BME280;24936;46.328;11.026;2023-04-02T02:02:04;93452.63;;;4.15;68.93
39223;BME280;24936;46.328;11.026;2023-04-02T02:04:31;93459.31;;;4.08;68.93
39223;BME280;24936;46.328;11.026;2023-04-02T02:06:58;93456.38;;;3.69;71.22
39223;BME280;24936;46.328;11.026;2023-04-02T02:09:28;93457.63;;;3.30;73.31
39223;BME280;24936;46.328;11.026;2023-04-02T02:11:56;93462.63;;;3.11;72.79
39223;BME280;24936;46.328;11.026;2023-04-02T02:14:23;93469.69;;;3.20;72.66
39223;BME280;24936;46.328;11.026;2023-04-02T02:16:49;93474.22;;;2.84;74.65
39223;BME280;24936;46.328;11.026;2023-04-02T02:19:28;93474.38;;;2.58;75.21
39223;BME280;24936;46.328;11.026;2023-04-02T02:24:44;93479.84;;;2.89;73.38
39223;BME280;24936;46.328;11.026;2023-04-02T02:29:55;93471.13;;;2.90;73.57
39223;BME280;24936;46.328;11.026;2023-04-02T02:32:26;93476.31;;;2.90;73.38
39223;BME280;24936;46.328;11.026;2023-04-02T02:35:24;93468.75;;;2.75;74.10
39223;BME280;24936;46.328;11.026;2023-04-02T02:38:02;93478.41;;;2.51;74.83
39223;BME280;24936;46.328;11.026;2023-04-02T02:40:35;93467.56;;;2.68;74.33
39223;BME280;24936;46.328;11.026;2023-04-02T02:43:04;93484.03;;;2.44;74.52
39223;BME280;24936;46.328;11.026;2023-04-02T02:45:35;93485.75;;;2.57;73.38
39223;BME280;24936;46.328;11.026;2023-04-02T02:51:46;93491.16;;;2.54;74.36
39223;BME280;24936;46.328;11.026;2023-04-02T02:54:14;93489.72;;;2.50;74.05
39223;BME280;24936;46.328;11.026;2023-04-02T02:56:47;93500.66;;;2.31;75.25
39223;BME280;24936;46.328;11.026;2023-04-02T02:59:16;93497.50;;;2.38;75.54
39223;BME280;24936;46.328;11.026;2023-04-02T03:01:43;93504.31;;;2.64;73.48
39223;BME280;24936;46.328;11.026;2023-04-02T03:04:09;93498.63;;;2.58;73.78
39223;BME280;24936;46.328;11.026;2023-04-02T03:06:35;93500.28;;;2.24;75.08
39223;BME280;24936;46.328;11.026;2023-04-02T03:11:48;93505.88;;;2.42;74.41
39223;BME280;24936;46.328;11.026;2023-04-02T03:14:30;93508.63;;;2.52;73.27
39223;BME280;24936;46.328;11.026;2023-04-02T03:17:04;93506.94;;;2.28;75.04
39223;BME280;24936;46.328;11.026;2023-04-02T03:19:46;93512.34;;;2.25;74.80
39223;BME280;24936;46.328;11.026;2023-04-02T03:22:17;93508.97;;;2.11;75.77
39223;BME280;24936;46.328;11.026;2023-04-02T03:27:35;93519.97;;;1.91;77.09
39223;BME280;24936;46.328;11.026;2023-04-02T03:32:48;93512.00;;;2.05;75.51
39223;BME280;24936;46.328;11.026;2023-04-02T03:35:21;93519.16;;;1.90;76.41
39223;BME280;24936;46.328;11.026;2023-04-02T03:38:14;93528.44;;;2.06;74.97
39223;BME280;24936;46.328;11.026;2023-04-02T03:41:05;93522.94;;;1.97;74.55
39223;BME280;24936;46.328;11.026;2023-04-02T03:44:02;93526.19;;;2.01;74.25
39223;BME280;24936;46.328;11.026;2023-04-02T03:46:43;93523.50;;;1.90;74.74
39223;BME280;24936;46.328;11.026;2023-04-02T03:49:17;93526.56;;;2.08;73.37
39223;BME280;24936;46.328;11.026;2023-04-02T03:54:28;93536.88;;;1.96;73.70
39223;BME280;24936;46.328;11.026;2023-04-02T03:56:54;93534.75;;;1.77;74.53
39223;BME280;24936;46.328;11.026;2023-04-02T03:59:31;93542.53;;;2.14;72.33
39223;BME280;24936;46.328;11.026;2023-04-02T04:04:42;93550.53;;;1.50;75.44
39223;BME280;24936;46.328;11.026;2023-04-02T04:07:17;93556.66;;;1.36;75.98
39223;BME280;24936;46.328;11.026;2023-04-02T04:09:46;93559.19;;;1.25;75.96
39223;BME280;24936;46.328;11.026;2023-04-02T04:15:06;93552.94;;;1.27;75.67
39223;BME280;24936;46.328;11.026;2023-04-02T04:20:24;93554.66;;;1.52;74.33
39223;BME280;24936;46.328;11.026;2023-04-02T04:22:50;93563.31;;;1.27;75.39
39223;BME280;24936;46.328;11.026;2023-04-02T04:25:29;93564.19;;;1.02;76.47
39223;BME280;24936;46.328;11.026;2023-04-02T04:28:09;93576.00;;;0.93;77.85
39223;BME280;24936;46.328;11.026;2023-04-02T04:31:02;93580.44;;;1.30;76.81
39223;BME280;24936;46.328;11.026;2023-04-02T04:33:39;93574.63;;;1.26;76.35
39223;BME280;24936;46.328;11.026;2023-04-02T04:36:17;93585.09;;;1.25;76.76
39223;BME280;24936;46.328;11.026;2023-04-02T04:38:48;93583.75;;;1.32;76.02
39223;BME280;24936;46.328;11.026;2023-04-02T04:41:23;93589.13;;;1.42;75.86
39223;BME280;24936;46.328;11.026;2023-04-02T04:43:55;93588.94;;;1.82;74.32
39223;BME280;24936;46.328;11.026;2023-04-02T04:46:40;93593.91;;;2.22;72.02
39223;BME280;24936;46.328;11.026;2023-04-02T04:49:24;93607.06;;;1.58;75.16
39223;BME280;24936;46.328;11.026;2023-04-02T04:52:23;93601.06;;;1.31;75.46
39223;BME280;24936;46.328;11.026;2023-04-02T04:54:50;93615.00;;;1.17;75.79
39223;BME280;24936;46.328;11.026;2023-04-02T05:00:05;93621.38;;;0.73;77.77
39223;BME280;24936;46.328;11.026;2023-04-02T05:02:48;93626.16;;;1.05;76.21
39223;BME280;24936;46.328;11.026;2023-04-02T05:05:19;93629.72;;;1.30;75.38
39223;BME280;24936;46.328;11.026;2023-04-02T05:07:50;93628.66;;;1.45;74.74
39223;BME280;24936;46.328;11.026;2023-04-02T05:13:02;93634.38;;;1.25;76.55
39223;BME280;24936;46.328;11.026;2023-04-02T05:15:34;93628.75;;;1.05;77.94
39223;BME280;24936;46.328;11.026;2023-04-02T05:18:27;93627.81;;;0.93;78.78
39223;BME280;24936;46.328;11.026;2023-04-02T05:20:59;93637.38;;;1.05;77.64
39223;BME280;24936;46.328;11.026;2023-04-02T05:23:30;93634.25;;;1.13;77.09
39223;BME280;24936;46.328;11.026;2023-04-02T05:26:05;93645.16;;;1.18;76.99
39223;BME280;24936;46.328;11.026;2023-04-02T05:28:39;93648.16;;;1.12;77.21
39223;BME280;24936;46.328;11.026;2023-04-02T05:31:09;93649.19;;;1.22;76.94
39223;BME280;24936;46.328;11.026;2023-04-02T05:33:37;93654.69;;;1.31;76.63
39223;BME280;24936;46.328;11.026;2023-04-02T05:36:07;93648.59;;;1.32;76.42
39223;BME280;24936;46.328;11.026;2023-04-02T05:38:38;93646.59;;;1.48;75.29
39223;BME280;24936;46.328;11.026;2023-04-02T05:41:14;93649.03;;;2.26;71.99
39223;BME280;24936;46.328;11.026;2023-04-02T05:43:45;93649.97;;;2.25;71.88
39223;BME280;24936;46.328;11.026;2023-04-02T05:46:22;93650.06;;;1.86;75.52
39223;BME280;24936;46.328;11.026;2023-04-02T05:48:54;93650.50;;;1.67;77.01
39223;BME280;24936;46.328;11.026;2023-04-02T05:51:26;93657.03;;;1.86;75.81
39223;BME280;24936;46.328;11.026;2023-04-02T05:53:59;93645.72;;;2.24;73.72
39223;BME280;24936;46.328;11.026;2023-04-02T05:56:34;93646.56;;;2.60;72.29
39223;BME280;24936;46.328;11.026;2023-04-02T05:59:28;93643.16;;;2.84;71.38
39223;BME280;24936;46.328;11.026;2023-04-02T06:02:03;93652.31;;;2.77;72.40
39223;BME280;24936;46.328;11.026;2023-04-02T06:04:41;93649.28;;;2.83;71.21
39223;BME280;24936;46.328;11.026;2023-04-02T06:07:33;93648.56;;;2.81;72.05
39223;BME280;24936;46.328;11.026;2023-04-02T06:14:58;93660.47;;;3.08;72.12
39223;BME280;24936;46.328;11.026;2023-04-02T06:17:24;93664.81;;;3.07;72.98
39223;BME280;24936;46.328;11.026;2023-04-02T06:19:52;93664.22;;;3.03;72.37
39223;BME280;24936;46.328;11.026;2023-04-02T06:22:35;93664.31;;;3.26;69.65
39223;BME280;24936;46.328;11.026;2023-04-02T06:25:07;93663.38;;;3.50;69.87
39223;BME280;24936;46.328;11.026;2023-04-02T06:27:37;93671.44;;;3.70;70.22
39223;BME280;24936;46.328;11.026;2023-04-02T06:30:04;93660.78;;;3.73;69.26
39223;BME280;24936;46.328;11.026;2023-04-02T06:32:31;93662.44;;;3.74;71.08
39223;BME280;24936;46.328;11.026;2023-04-02T06:34:57;93656.03;;;3.44;70.42
39223;BME280;24936;46.328;11.026;2023-04-02T06:37:33;93670.75;;;3.67;72.63
39223;BME280;24936;46.328;11.026;2023-04-02T06:40:02;93672.97;;;3.61;71.93
39223;BME280;24936;46.328;11.026;2023-04-02T06:42:34;93670.03;;;3.65;70.00
39223;BME280;24936;46.328;11.026;2023-04-02T06:45:02;93671.44;;;3.92;69.03
39223;BME280;24936;46.328;11.026;2023-04-02T06:47:35;93678.31;;;4.05;67.95
39223;BME280;24936;46.328;11.026;2023-04-02T06:50:13;93686.59;;;4.10;65.97
39223;BME280;24936;46.328;11.026;2023-04-02T06:52:44;93688.13;;;4.12;66.07
39223;BME280;24936;46.328;11.026;2023-04-02T06:57:59;93679.22;;;4.26;65.59
39223;BME280;24936;46.328;11.026;2023-04-02T07:02:51;93675.44;;;4.31;65.09
39223;BME280;24936;46.328;11.026;2023-04-02T07:05:17;93679.69;;;4.32;65.72
39223;BME280;24936;46.328;11.026;2023-04-02T07:07:43;93685.44;;;4.58;63.43
39223;BME280;24936;46.328;11.026;2023-04-02T07:10:11;93687.22;;;4.90;63.67
39223;BME280;24936;46.328;11.026;2023-04-02T07:12:37;93683.50;;;5.04;63.48
39223;BME280;24936;46.328;11.026;2023-04-02T07:15:02;93696.56;;;5.25;63.06
39223;BME280;24936;46.328;11.026;2023-04-02T07:17:31;93685.44;;;5.44;61.94
39223;BME280;24936;46.328;11.026;2023-04-02T07:19:57;93685.81;;;5.61;59.88
39223;BME280;24936;46.328;11.026;2023-04-02T07:22:23;93689.38;;;5.60;58.89
39223;BME280;24936;46.328;11.026;2023-04-02T07:24:50;93681.72;;;5.68;60.00
39223;BME280;24936;46.328;11.026;2023-04-02T07:27:16;93682.78;;;5.87;60.04
39223;BME280;24936;46.328;11.026;2023-04-02T07:29:41;93684.13;;;6.02;59.62
39223;BME280;24936;46.328;11.026;2023-04-02T07:32:14;93685.59;;;6.26;58.70
39223;BME280;24936;46.328;11.026;2023-04-02T07:34:55;93684.41;;;6.50;58.21
39223;BME280;24936;46.328;11.026;2023-04-02T07:37:30;93684.72;;;6.66;58.50
39223;BME280;24936;46.328;11.026;2023-04-02T07:39:56;93688.47;;;6.73;57.72
39223;BME280;24936;46.328;11.026;2023-04-02T07:42:22;93689.81;;;6.78;58.89
39223;BME280;24936;46.328;11.026;2023-04-02T07:44:47;93695.06;;;6.78;58.57
39223;BME280;24936;46.328;11.026;2023-04-02T07:47:16;93692.34;;;6.89;58.00
39223;BME280;24936;46.328;11.026;2023-04-02T07:49:41;93703.88;;;6.86;57.02
39223;BME280;24936;46.328;11.026;2023-04-02T07:52:07;93701.97;;;6.98;55.49
39223;BME280;24936;46.328;11.026;2023-04-02T07:54:33;93692.59;;;7.06;53.93
39223;BME280;24936;46.328;11.026;2023-04-02T07:57:02;93707.47;;;7.25;54.03
39223;BME280;24936;46.328;11.026;2023-04-02T07:59:31;93694.22;;;7.65;52.08
39223;BME280;24936;46.328;11.026;2023-04-02T08:01:56;93700.78;;;8.65;49.41
39223;BME280;24936;46.328;11.026;2023-04-02T08:04:22;93702.44;;;9.30;47.73
39223;BME280;24936;46.328;11.026;2023-04-02T08:06:48;93702.56;;;9.91;45.77
39223;BME280;24936;46.328;11.026;2023-04-02T08:09:15;93698.75;;;10.38;42.54
39223;BME280;24936;46.328;11.026;2023-04-02T08:11:41;93700.66;;;10.01;44.81
39223;BME280;24936;46.328;11.026;2023-04-02T08:14:08;93696.41;;;10.61;45.58
39223;BME280;24936;46.328;11.026;2023-04-02T08:16:51;93686.50;;;11.14;43.58
39223;BME280;24936;46.328;11.026;2023-04-02T08:19:18;93686.34;;;11.16;42.05
39223;BME280;24936;46.328;11.026;2023-04-02T08:21:44;93691.94;;;11.05;41.73
39223;BME280;24936;46.328;11.026;2023-04-02T08:24:10;93683.88;;;11.31;41.24
39223;BME280;24936;46.328;11.026;2023-04-02T08:26:36;93686.47;;;11.06;42.87
39223;BME280;24936;46.328;11.026;2023-04-02T08:29:02;93685.34;;;11.25;41.34
39223;BME280;24936;46.328;11.026;2023-04-02T08:31:27;93698.22;;;11.53;40.35
39223;BME280;24936;46.328;11.026;2023-04-02T08:33:54;93684.06;;;11.71;39.25
39223;BME280;24936;46.328;11.026;2023-04-02T08:36:28;93685.94;;;12.43;40.50
39223;BME280;24936;46.328;11.026;2023-04-02T08:38:55;93683.38;;;13.29;39.85
39223;BME280;24936;46.328;11.026;2023-04-02T08:41:23;93691.41;;;14.21;36.09
39223;BME280;24936;46.328;11.026;2023-04-02T08:44:09;93687.88;;;14.74;35.55
39223;BME280;24936;46.328;11.026;2023-04-02T08:46:48;93690.22;;;14.98;33.43
39223;BME280;24936;46.328;11.026;2023-04-02T08:51:54;93676.47;;;16.82;31.63
39223;BME280;24936;46.328;11.026;2023-04-02T08:54:27;93678.06;;;16.76;29.61
39223;BME280;24936;46.328;11.026;2023-04-02T08:56:57;93681.66;;;17.59;28.95
39223;BME280;24936;46.328;11.026;2023-04-02T09:03:07;93672.84;;;18.46;27.34
39223;BME280;24936;46.328;11.026;2023-04-02T09:05:38;93670.75;;;18.75;27.14
39223;BME280;24936;46.328;11.026;2023-04-02T09:08:19;93663.94;;;18.92;27.89
39223;BME280;24936;46.328;11.026;2023-04-02T09:11:49;93671.53;;;19.41;26.41
39223;BME280;24936;46.328;11.026;2023-04-02T09:18:12;93668.16;;;19.20;25.00
39223;BME280;24936;46.328;11.026;2023-04-02T09:20:59;93669.59;;;19.16;24.61
39223;BME280;24936;46.328;11.026;2023-04-02T09:24:28;93660.00;;;19.47;24.54
39223;BME280;24936;46.328;11.026;2023-04-02T09:26:51;93672.72;;;20.60;23.90
39223;BME280;24936;46.328;11.026;2023-04-02T09:33:00;93671.44;;;20.62;22.96
39223;BME280;24936;46.328;11.026;2023-04-02T09:35:32;93671.31;;;21.32;24.19
39223;BME280;24936;46.328;11.026;2023-04-02T09:43:22;93673.94;;;21.01;22.63
39223;BME280;24936;46.328;11.026;2023-04-02T09:49:04;93674.59;;;21.95;20.85
39223;BME280;24936;46.328;11.026;2023-04-02T09:51:31;93657.03;;;24.05;17.39
39223;BME280;24936;46.328;11.026;2023-04-02T09:56:28;93663.28;;;23.64;19.24
39223;BME280;24936;46.328;11.026;2023-04-02T10:01:34;93662.97;;;20.91;19.62
39223;BME280;24936;46.328;11.026;2023-04-02T10:04:02;93661.75;;;18.62;21.32
39223;BME280;24936;46.328;11.026;2023-04-02T10:06:29;93668.34;;;18.60;23.55
39223;BME280;24936;46.328;11.026;2023-04-02T10:08:55;93663.22;;;17.84;23.88
39223;BME280;24936;46.328;11.026;2023-04-02T10:11:32;93670.47;;;17.15;22.92
39223;BME280;24936;46.328;11.026;2023-04-02T10:14:08;93672.94;;;17.10;23.24
39223;BME280;24936;46.328;11.026;2023-04-02T10:16:40;93668.13;;;17.61;22.58
39223;BME280;24936;46.328;11.026;2023-04-02T10:19:35;93666.31;;;17.68;21.30
39223;BME280;24936;46.328;11.026;2023-04-02T10:22:04;93654.72;;;19.40;20.67
39223;BME280;24936;46.328;11.026;2023-04-02T10:24:33;93652.06;;;22.50;19.00
39223;BME280;24936;46.328;11.026;2023-04-02T10:32:39;93651.50;;;25.46;18.52
39223;BME280;24936;46.328;11.026;2023-04-02T10:35:17;93655.66;;;20.36;19.78
39223;BME280;24936;46.328;11.026;2023-04-02T10:40:47;93647.88;;;20.34;20.02
39223;BME280;24936;46.328;11.026;2023-04-02T10:46:21;93662.47;;;17.97;22.36
39223;BME280;24936;46.328;11.026;2023-04-02T10:49:06;93655.94;;;15.99;25.63
39223;BME280;24936;46.328;11.026;2023-04-02T10:51:44;93653.44;;;15.47;24.53
39223;BME280;24936;46.328;11.026;2023-04-02T10:56:48;93654.94;;;15.78;24.88
39223;BME280;24936;46.328;11.026;2023-04-02T10:59:23;93648.13;;;15.47;24.84
39223;BME280;24936;46.328;11.026;2023-04-02T11:01:53;93651.13;;;18.56;23.45
39223;BME280;24936;46.328;11.026;2023-04-02T11:04:52;93650.44;;;19.33;20.52
39223;BME280;24936;46.328;11.026;2023-04-02T11:07:23;93653.72;;;19.67;22.41
39223;BME280;24936;46.328;11.026;2023-04-02T11:09:54;93653.25;;;18.92;21.99
39223;BME280;24936;46.328;11.026;2023-04-02T11:12:45;93653.94;;;17.20;20.97
39223;BME280;24936;46.328;11.026;2023-04-02T11:15:18;93656.03;;;16.89;23.82
39223;BME280;24936;46.328;11.026;2023-04-02T11:17:44;93651.91;;;16.73;25.74
39223;BME280;24936;46.328;11.026;2023-04-02T11:23:08;93651.00;;;16.59;26.47
39223;BME280;24936;46.328;11.026;2023-04-02T11:25:38;93647.81;;;16.35;22.93
39223;BME280;24936;46.328;11.026;2023-04-02T11:28:28;93646.56;;;16.73;23.39
39223;BME280;24936;46.328;11.026;2023-04-02T11:30:55;93646.38;;;16.33;23.68
39223;BME280;24936;46.328;11.026;2023-04-02T11:35:59;93652.03;;;15.95;23.52
39223;BME280;24936;46.328;11.026;2023-04-02T11:40:54;93663.25;;;15.53;23.79
39223;BME280;24936;46.328;11.026;2023-04-02T11:45:59;93661.19;;;15.70;28.55
39223;BME280;24936;46.328;11.026;2023-04-02T11:48:30;93653.66;;;15.74;24.79
39223;BME280;24936;46.328;11.026;2023-04-02T11:50:57;93654.25;;;15.48;26.44
39223;BME280;24936;46.328;11.026;2023-04-02T11:53:32;93656.31;;;15.09;24.42
39223;BME280;24936;46.328;11.026;2023-04-02T11:56:19;93656.00;;;15.19;25.53
39223;BME280;24936;46.328;11.026;2023-04-02T12:07:29;93648.38;;;21.85;20.52
39223;BME280;24936;46.328;11.026;2023-04-02T12:10:32;93641.47;;;23.32;18.21
39223;BME280;24936;46.328;11.026;2023-04-02T12:12:58;93641.28;;;20.81;21.22
39223;BME280;24936;46.328;11.026;2023-04-02T12:18:02;93647.47;;;17.89;20.93
39223;BME280;24936;46.328;11.026;2023-04-02T12:20:29;93661.34;;;17.31;25.20
39223;BME280;24936;46.328;11.026;2023-04-02T12:22:56;93654.31;;;16.68;23.11
39223;BME280;24936;46.328;11.026;2023-04-02T12:28:17;93660.91;;;16.44;24.62
39223;BME280;24936;46.328;11.026;2023-04-02T12:30:43;93650.59;;;16.62;24.39
39223;BME280;24936;46.328;11.026;2023-04-02T12:35:49;93645.03;;;16.15;24.35
39223;BME280;24936;46.328;11.026;2023-04-02T12:38:23;93645.75;;;16.02;24.15
39223;BME280;24936;46.328;11.026;2023-04-02T12:41:05;93656.94;;;15.98;23.64
39223;BME280;24936;46.328;11.026;2023-04-02T12:43:42;93645.19;;;16.42;23.50
39223;BME280;24936;46.328;11.026;2023-04-02T12:46:08;93655.28;;;15.97;25.12
39223;BME280;24936;46.328;11.026;2023-04-02T12:48:34;93648.75;;;15.71;24.78
39223;BME280;24936;46.328;11.026;2023-04-02T12:51:01;93648.78;;;15.78;25.69
39223;BME280;24936;46.328;11.026;2023-04-02T12:53:35;93652.59;;;15.90;24.80
39223;BME280;24936;46.328;11.026;2023-04-02T12:56:02;93653.16;;;16.07;23.77
39223;BME280;24936;46.328;11.026;2023-04-02T12:58:38;93653.44;;;18.32;22.02
39223;BME280;24936;46.328;11.026;2023-04-02T13:03:43;93648.38;;;18.83;23.58
39223;BME280;24936;46.328;11.026;2023-04-02T13:06:33;93642.81;;;18.12;22.11
39223;BME280;24936;46.328;11.026;2023-04-02T13:09:02;93632.88;;;17.25;21.22
39223;BME280;24936;46.328;11.026;2023-04-02T13:11:39;93641.03;;;17.17;21.90
39223;BME280;24936;46.328;11.026;2023-04-02T13:14:13;93649.16;;;17.02;22.81
39223;BME280;24936;46.328;11.026;2023-04-02T13:16:40;93643.19;;;16.51;22.83
39223;BME280;24936;46.328;11.026;2023-04-02T13:19:10;93637.06;;;16.15;22.61
39223;BME280;24936;46.328;11.026;2023-04-02T13:21:36;93640.97;;;15.91;25.94
39223;BME280;24936;46.328;11.026;2023-04-02T13:24:01;93642.19;;;15.45;24.08
39223;BME280;24936;46.328;11.026;2023-04-02T13:26:27;93636.41;;;15.35;24.98
39223;BME280;24936;46.328;11.026;2023-04-02T13:31:34;93635.88;;;15.46;24.56
39223;BME280;24936;46.328;11.026;2023-04-02T13:34:00;93633.81;;;15.41;26.03
39223;BME280;24936;46.328;11.026;2023-04-02T13:36:26;93638.16;;;15.49;24.89
39223;BME280;24936;46.328;11.026;2023-04-02T13:38:53;93637.50;;;15.69;23.90
39223;BME280;24936;46.328;11.026;2023-04-02T13:41:20;93632.88;;;15.78;24.15
39223;BME280;24936;46.328;11.026;2023-04-02T13:43:51;93637.47;;;18.12;23.35
39223;BME280;24936;46.328;11.026;2023-04-02T13:46:23;93630.88;;;19.46;21.95
39223;BME280;24936;46.328;11.026;2023-04-02T13:48:50;93625.91;;;20.32;20.27
39223;BME280;24936;46.328;11.026;2023-04-02T13:51:16;93634.00;;;17.98;23.08
39223;BME280;24936;46.328;11.026;2023-04-02T13:53:45;93641.44;;;17.14;25.07
39223;BME280;24936;46.328;11.026;2023-04-02T13:56:11;93634.97;;;16.04;25.23
39223;BME280;24936;46.328;11.026;2023-04-02T13:58:36;93636.75;;;15.53;23.35
39223;BME280;24936;46.328;11.026;2023-04-02T14:01:12;93635.25;;;15.22;23.48
39223;BME280;24936;46.328;11.026;2023-04-02T14:03:50;93634.78;;;14.97;23.21
39223;BME280;24936;46.328;11.026;2023-04-02T14:09:30;93647.31;;;14.88;24.79
39223;BME280;24936;46.328;11.026;2023-04-02T14:15:06;93639.56;;;14.72;24.22
39223;BME280;24936;46.328;11.026;2023-04-02T14:20:25;93645.22;;;14.53;30.27
39223;BME280;24936;46.328;11.026;2023-04-02T14:29:43;93640.16;;;17.03;24.82
39223;BME280;24936;46.328;11.026;2023-04-02T14:31:54;93640.56;;;17.00;21.85
39223;BME280;24936;46.328;11.026;2023-04-02T14:34:37;93645.03;;;16.15;23.54
39223;BME280;24936;46.328;11.026;2023-04-02T14:40:20;93646.00;;;15.36;23.87
39223;BME280;24936;46.328;11.026;2023-04-02T14:42:56;93655.91;;;15.12;24.45
39223;BME280;24936;46.328;11.026;2023-04-02T14:45:43;93657.31;;;15.08;25.21
39223;BME280;24936;46.328;11.026;2023-04-02T15:01:26;93657.22;;;15.38;24.20
39223;BME280;24936;46.328;11.026;2023-04-02T15:04:09;93654.25;;;15.26;25.03
39223;BME280;24936;46.328;11.026;2023-04-02T15:06:40;93656.56;;;15.14;28.29
39223;BME280;24936;46.328;11.026;2023-04-02T15:11:50;93666.75;;;14.95;25.94
39223;BME280;24936;46.328;11.026;2023-04-02T15:14:21;93654.53;;;15.16;24.92
39223;BME280;24936;46.328;11.026;2023-04-02T15:16:47;93658.81;;;15.82;24.21
39223;BME280;24936;46.328;11.026;2023-04-02T15:19:15;93663.84;;;15.92;24.18
39223;BME280;24936;46.328;11.026;2023-04-02T15:24:41;93660.66;;;15.82;23.59
39223;BME280;24936;46.328;11.026;2023-04-02T15:27:25;93673.56;;;15.63;24.37
39223;BME280;24936;46.328;11.026;2023-04-02T15:30:14;93669.66;;;15.37;23.29
39223;BME280;24936;46.328;11.026;2023-04-02T15:32:45;93674.50;;;15.99;23.30
39223;BME280;24936;46.328;11.026;2023-04-02T15:40:53;93676.72;;;15.52;22.84
39223;BME280;24936;46.328;11.026;2023-04-02T15:48:59;93671.72;;;14.83;25.97
39223;BME280;24936;46.328;11.026;2023-04-02T15:54:18;93681.09;;;14.56;24.85
39223;BME280;24936;46.328;11.026;2023-04-02T16:02:39;93690.59;;;14.20;25.38
39223;BME280;24936;46.328;11.026;2023-04-02T16:10:55;93704.00;;;13.81;28.04
39223;BME280;24936;46.328;11.026;2023-04-02T16:13:32;93706.34;;;13.75;25.75
39223;BME280;24936;46.328;11.026;2023-04-02T16:16:30;93712.38;;;13.69;25.92
39223;BME280;24936;46.328;11.026;2023-04-02T16:19:11;93711.41;;;13.62;28.03
39223;BME280;24936;46.328;11.026;2023-04-02T16:22:04;93718.06;;;13.58;25.31
39223;BME280;24936;46.328;11.026;2023-04-02T16:24:34;93710.84;;;13.52;26.64
39223;BME280;24936;46.328;11.026;2023-04-02T16:27:19;93716.47;;;13.49;28.36
39223;BME280;24936;46.328;11.026;2023-04-02T16:30:00;93712.22;;;13.39;26.22
39223;BME280;24936;46.328;11.026;2023-04-02T16:35:44;93719.06;;;13.25;28.21
39223;BME280;24936;46.328;11.026;2023-04-02T16:49:44;93736.56;;;12.47;29.28
39223;BME280;24936;46.328;11.026;2023-04-02T16:57:47;93744.03;;;11.93;30.60
39223;BME280;24936;46.328;11.026;2023-04-02T17:08:40;93761.97;;;11.57;30.39
39223;BME280;24936;46.328;11.026;2023-04-02T17:15:22;93769.47;;;11.19;31.87
39223;BME280;24936;46.328;11.026;2023-04-02T17:18:48;93776.22;;;10.70;36.14
39223;BME280;24936;46.328;11.026;2023-04-02T17:21:26;93786.50;;;10.37;36.69
39223;BME280;24936;46.328;11.026;2023-04-02T17:26:36;93793.31;;;9.95;36.56
39223;BME280;24936;46.328;11.026;2023-04-02T17:29:07;93804.03;;;10.02;34.92
39223;BME280;24936;46.328;11.026;2023-04-02T17:34:50;93800.78;;;10.52;33.08
39223;BME280;24936;46.328;11.026;2023-04-02T17:38:13;93792.00;;;10.70;32.70
39223;BME280;24936;46.328;11.026;2023-04-02T17:40:59;93808.69;;;10.87;32.10
39223;BME280;24936;46.328;11.026;2023-04-02T17:53:07;93824.66;;;10.59;33.79